createdAt,value
2019-04-28T00:01:31.051Z,10.29
2019-04-28T00:04:01.377Z,10.29
2019-04-28T00:06:31.557Z,10.40
2019-04-28T00:09:01.730Z,10.30
2019-04-28T00:11:31.695Z,10.22
2019-04-28T00:14:01.899Z,10.27
2019-04-28T00:16:31.304Z,10.23
2019-04-28T00:19:01.107Z,10.22
2019-04-28T00:21:33.896Z,10.31
2019-04-28T00:24:11.537Z,10.29
2019-04-28T00:26:42.250Z,10.30
2019-04-28T00:29:11.232Z,10.10
2019-04-28T00:31:41.397Z,10.18
2019-04-28T00:34:11.432Z,10.25
2019-04-28T00:36:41.234Z,10.20
2019-04-28T00:39:11.119Z,10.15
2019-04-28T00:41:41.949Z,10.22
2019-04-28T00:44:11.931Z,10.21
2019-04-28T00:46:42.114Z,10.07
2019-04-28T00:49:11.811Z,10.10
2019-04-28T00:51:53.894Z,10.25
2019-04-28T00:54:18.253Z,10.20
2019-04-28T00:56:46.697Z,10.12
2019-04-28T00:59:15.113Z,9.95
2019-04-28T01:01:47.653Z,10.18
2019-04-28T01:04:15.302Z,10.21
2019-04-28T01:06:43.673Z,10.29
2019-04-28T01:09:12.389Z,10.19
2019-04-28T01:11:43.283Z,10.12
2019-04-28T01:14:11.785Z,10.16
2019-04-28T01:16:41.858Z,10.16
2019-04-28T01:19:20.430Z,10.10
2019-04-28T01:22:10.242Z,9.97
2019-04-28T01:24:40.303Z,10.07
2019-04-28T01:27:15.927Z,10.21
2019-04-28T01:29:44.324Z,10.22
2019-04-28T01:32:23.428Z,10.22
2019-04-28T01:34:51.908Z,10.15
2019-04-28T01:37:20.354Z,9.92
2019-04-28T01:39:49.703Z,9.94
2019-04-28T01:42:18.083Z,9.91
2019-04-28T01:44:49.467Z,10.07
2019-04-28T01:47:17.978Z,10.02
2019-04-28T01:49:46.443Z,9.97
2019-04-28T01:52:20.550Z,10.04
2019-04-28T01:54:50.328Z,10.02
2019-04-28T01:57:21.314Z,10.01
2019-04-28T01:59:49.958Z,10.10
2019-04-28T02:02:19.942Z,9.93
2019-04-28T02:04:49.898Z,9.90
2019-04-28T02:07:20.445Z,10.06
2019-04-28T02:09:49.477Z,10.04
2019-04-28T02:12:17.986Z,10.01
2019-04-28T02:14:46.413Z,10.00
2019-04-28T02:17:15.789Z,9.84
2019-04-28T02:19:44.215Z,9.85
2019-04-28T02:22:16.740Z,9.89
2019-04-28T02:24:46.892Z,9.94
2019-04-28T02:27:15.654Z,10.00
2019-04-28T02:29:49.854Z,10.00
2019-04-28T02:32:23.829Z,9.86
2019-04-28T02:34:50.730Z,9.93
2019-04-28T02:37:20.531Z,9.81
2019-04-28T02:39:50.507Z,9.89
2019-04-28T02:42:20.920Z,9.79
2019-04-28T02:44:50.489Z,9.88
2019-04-28T02:47:21.907Z,9.90
2019-04-28T02:50:08.299Z,9.97
2019-04-28T02:52:53.707Z,9.97
2019-04-28T02:55:23.126Z,9.89
2019-04-28T02:57:51.913Z,9.80
2019-04-28T03:00:21.582Z,9.83
2019-04-28T03:02:51.343Z,9.72
2019-04-28T03:05:21.676Z,9.84
2019-04-28T03:07:51.547Z,9.90
2019-04-28T03:10:21.310Z,9.79
2019-04-28T03:12:51.736Z,9.77
2019-04-28T03:15:20.603Z,9.93
2019-04-28T03:17:50.554Z,9.94
2019-04-28T03:20:21.099Z,9.79
2019-04-28T03:22:51.272Z,9.80
2019-04-28T03:25:21.440Z,9.87
2019-04-28T03:27:57.222Z,9.77
2019-04-28T03:30:37.318Z,9.81
2019-04-28T03:33:17.076Z,9.91
2019-04-28T03:35:37.501Z,9.93
2019-04-28T03:38:07.795Z,9.91
2019-04-28T03:40:41.206Z,9.87
2019-04-28T03:43:14.842Z,9.98
2019-04-28T03:45:53.709Z,9.82
2019-04-28T03:48:22.132Z,9.95
2019-04-28T03:50:51.364Z,9.74
2019-04-28T03:53:20.705Z,9.87
2019-04-28T03:55:51.369Z,9.88
2019-04-28T03:58:23.597Z,9.96
2019-04-28T04:00:51.630Z,9.88
2019-04-28T04:03:20.932Z,9.69
2019-04-28T04:05:50.855Z,9.69
2019-04-28T04:08:21.023Z,9.80
2019-04-28T04:11:10.615Z,9.81
2019-04-28T04:13:44.966Z,9.65
2019-04-28T04:16:33.079Z,9.80
2019-04-28T04:19:03.140Z,9.79
2019-04-28T04:21:31.576Z,9.85
2019-04-28T04:24:01.069Z,9.82
2019-04-28T04:26:31.014Z,9.79
2019-04-28T04:29:04.385Z,9.78
2019-04-28T04:31:32.792Z,9.74
2019-04-28T04:34:03.353Z,9.80
2019-04-28T04:36:31.427Z,9.76
2019-04-28T04:39:01.737Z,9.77
2019-04-28T04:41:30.641Z,9.73
2019-04-28T04:44:01.087Z,9.79
2019-04-28T04:46:31.428Z,9.81
2019-04-28T04:49:00.736Z,9.84
2019-04-28T04:51:30.642Z,9.82
2019-04-28T04:54:01.105Z,9.82
2019-04-28T04:56:30.183Z,9.83
2019-04-28T04:59:00.387Z,9.82
2019-04-28T05:01:30.644Z,9.91
2019-04-28T05:04:13.648Z,9.93
2019-04-28T05:06:43.052Z,9.98
2019-04-28T05:09:11.614Z,9.91
2019-04-28T05:11:40.402Z,10.03
2019-04-28T05:14:11.530Z,9.97
2019-04-28T05:16:39.999Z,10.13
2019-04-28T05:19:10.046Z,10.13
2019-04-28T05:21:40.197Z,10.09
2019-04-28T05:24:19.991Z,9.97
2019-04-28T05:26:51.401Z,9.97
2019-04-28T05:29:26.449Z,10.02
2019-04-28T05:31:50.450Z,10.01
2019-04-28T05:34:20.531Z,10.00
2019-04-28T05:36:50.522Z,9.95
2019-04-28T05:39:21.634Z,9.87
2019-04-28T05:41:50.559Z,9.89
2019-04-28T05:44:22.895Z,9.91
2019-04-28T05:46:50.876Z,9.85
2019-04-28T05:49:33.216Z,9.87
2019-04-28T05:52:20.014Z,9.75
2019-04-28T05:55:12.508Z,9.95
2019-04-28T05:57:53.057Z,9.90
2019-04-28T06:00:31.808Z,9.85
2019-04-28T06:03:01.856Z,9.80
2019-04-28T06:05:31.876Z,9.71
2019-04-28T06:08:04.522Z,9.82
2019-04-28T06:10:32.930Z,9.97
2019-04-28T06:13:03.870Z,9.90
2019-04-28T06:15:32.304Z,9.95
2019-04-28T06:18:00.737Z,9.91
2019-04-28T06:20:30.353Z,9.98
2019-04-28T06:22:58.767Z,10.02
2019-04-28T06:25:27.973Z,9.88
2019-04-28T06:27:56.395Z,10.02
2019-04-28T06:30:24.819Z,10.01
2019-04-28T06:32:53.245Z,9.89
2019-04-28T06:35:21.713Z,10.00
2019-04-28T06:37:50.134Z,9.85
2019-04-28T06:40:18.600Z,10.01
2019-04-28T06:42:47.002Z,9.69
2019-04-28T06:45:15.455Z,9.68
2019-04-28T06:47:43.878Z,9.87
2019-04-28T06:50:12.650Z,9.75
2019-04-28T06:52:41.058Z,9.68
2019-04-28T06:55:09.627Z,9.87
2019-04-28T06:57:38.167Z,9.68
2019-04-28T07:00:08.305Z,9.79
2019-04-28T07:02:36.800Z,9.72
2019-04-28T07:05:06.641Z,9.87
2019-04-28T07:07:35.055Z,9.77
2019-04-28T07:10:04.517Z,9.85
2019-04-28T07:12:33.011Z,9.83
2019-04-28T07:15:01.450Z,9.80
2019-04-28T07:17:29.844Z,9.94
2019-04-28T07:19:59.880Z,9.83
2019-04-28T07:22:29.958Z,9.99
2019-04-28T07:24:58.399Z,10.00
2019-04-28T07:27:26.844Z,10.09
2019-04-28T07:29:55.258Z,9.86
2019-04-28T07:32:23.679Z,9.85
2019-04-28T07:34:52.101Z,9.91
2019-04-28T07:37:20.611Z,10.03
2019-04-28T07:39:49.009Z,10.19
2019-04-28T07:42:17.460Z,10.13
2019-04-28T07:44:46.029Z,10.09
2019-04-28T07:47:15.492Z,10.13
2019-04-28T07:49:43.994Z,10.14
2019-04-28T07:52:14.054Z,10.20
2019-04-28T07:54:42.987Z,10.16
2019-04-28T07:57:11.387Z,10.15
2019-04-28T07:59:39.949Z,10.13
2019-04-28T08:02:08.454Z,9.95
2019-04-28T08:04:37.777Z,10.28
2019-04-28T08:07:06.177Z,10.27
2019-04-28T08:09:34.600Z,10.21
2019-04-28T08:12:03.013Z,10.07
2019-04-28T08:14:31.424Z,10.10
2019-04-28T08:16:59.834Z,9.86
2019-04-28T08:19:28.242Z,10.01
2019-04-28T08:21:56.659Z,9.92
2019-04-28T08:24:25.060Z,9.87
2019-04-28T08:26:53.478Z,10.04
2019-04-28T08:29:21.861Z,9.98
2019-04-28T08:31:54.479Z,9.92
2019-04-28T08:34:23.478Z,9.61
2019-04-28T08:36:51.893Z,9.84
2019-04-28T08:39:23.425Z,10.10
2019-04-28T08:41:50.727Z,9.87
2019-04-28T08:44:19.152Z,9.97
2019-04-28T08:46:47.568Z,9.95
2019-04-28T08:49:16.009Z,10.13
2019-04-28T08:51:44.430Z,9.98
2019-04-28T08:54:12.833Z,9.77
2019-04-28T08:56:41.602Z,9.80
2019-04-28T08:59:10.019Z,9.53
2019-04-28T09:01:38.427Z,9.77
2019-04-28T09:04:15.204Z,9.84
2019-04-28T09:06:37.408Z,9.81
2019-04-28T09:09:08.035Z,9.79
2019-04-28T09:11:36.454Z,9.91
2019-04-28T09:14:04.869Z,9.91
2019-04-28T09:16:33.325Z,9.96
2019-04-28T09:19:02.250Z,9.98
2019-04-28T09:21:30.649Z,10.04
2019-04-28T09:24:00.152Z,10.27
2019-04-28T09:26:32.595Z,10.29
2019-04-28T09:29:01.010Z,10.37
2019-04-28T09:31:29.438Z,10.38
2019-04-28T09:33:57.843Z,10.39
2019-04-28T09:36:26.287Z,10.41
2019-04-28T09:38:55.068Z,10.25
2019-04-28T09:41:23.570Z,10.45
2019-04-28T09:43:53.596Z,10.31
2019-04-28T09:46:24.309Z,10.42
2019-04-28T09:48:52.736Z,10.47
2019-04-28T09:51:21.152Z,10.54
2019-04-28T09:53:49.579Z,10.68
2019-04-28T09:56:18.012Z,10.75
2019-04-28T09:58:46.424Z,10.84
2019-04-28T10:01:14.836Z,10.62
2019-04-28T10:03:43.258Z,10.44
2019-04-28T10:06:11.668Z,10.65
2019-04-28T10:08:40.177Z,10.60
2019-04-28T10:11:08.849Z,10.72
2019-04-28T10:13:37.256Z,10.62
2019-04-28T10:16:05.759Z,10.52
2019-04-28T10:18:34.166Z,10.42
2019-04-28T10:21:02.579Z,10.46
2019-04-28T10:23:33.554Z,10.45
2019-04-28T10:26:08.340Z,10.54
2019-04-28T10:28:37.779Z,10.30
2019-04-28T10:31:13.414Z,10.43
2019-04-28T10:33:43.437Z,10.33
2019-04-28T10:36:12.515Z,10.69
2019-04-28T10:38:42.553Z,10.63
2019-04-28T10:41:13.430Z,10.80
2019-04-28T10:43:41.849Z,10.79
2019-04-28T10:46:10.261Z,10.52
2019-04-28T10:48:38.689Z,10.76
2019-04-28T10:51:07.104Z,10.80
2019-04-28T10:53:35.509Z,10.91
2019-04-28T10:56:03.925Z,10.91
2019-04-28T10:58:32.340Z,11.16
2019-04-28T11:01:00.752Z,11.01
2019-04-28T11:03:29.152Z,10.90
2019-04-28T11:05:59.693Z,11.16
2019-04-28T11:08:29.832Z,11.32
2019-04-28T11:11:00.249Z,11.57
2019-04-28T11:13:28.926Z,11.69
2019-04-28T11:15:57.341Z,11.82
2019-04-28T11:18:25.840Z,11.49
2019-04-28T11:20:57.446Z,11.49
2019-04-28T11:23:25.846Z,11.47
2019-04-28T11:25:54.852Z,11.49
2019-04-28T11:28:23.276Z,11.28
2019-04-28T11:30:51.662Z,11.60
2019-04-28T11:33:21.789Z,11.78
2019-04-28T11:35:51.153Z,11.90
2019-04-28T11:38:19.610Z,11.46
2019-04-28T11:40:47.990Z,11.40
2019-04-28T11:43:16.395Z,11.89
2019-04-28T11:45:45.748Z,11.99
2019-04-28T11:48:15.097Z,11.86
2019-04-28T11:50:44.295Z,12.15
2019-04-28T11:53:15.519Z,12.23
2019-04-28T11:55:43.929Z,12.29
2019-04-28T11:58:12.334Z,12.20
2019-04-28T12:00:42.012Z,12.33
2019-04-28T12:03:10.496Z,12.75
2019-04-28T12:05:41.012Z,12.84
2019-04-28T12:08:09.588Z,12.80
2019-04-28T12:10:55.093Z,13.13
2019-04-28T12:13:25.182Z,13.03
2019-04-28T12:16:05.153Z,13.03
2019-04-28T12:18:35.243Z,13.25
2019-04-28T12:21:04.359Z,13.31
2019-04-28T12:23:32.913Z,13.14
2019-04-28T12:26:01.364Z,13.24
2019-04-28T12:28:30.287Z,13.27
2019-04-28T12:30:59.742Z,13.43
2019-04-28T12:33:28.768Z,13.87
2019-04-28T12:35:57.164Z,14.24
2019-04-28T12:38:25.588Z,13.86
2019-04-28T12:40:55.865Z,13.71
2019-04-28T12:43:24.188Z,13.70
2019-04-28T12:45:52.618Z,13.68
2019-04-28T12:48:21.051Z,13.11
2019-04-28T12:50:51.144Z,13.56
2019-04-28T12:53:19.594Z,13.56
2019-04-28T12:55:47.980Z,13.54
2019-04-28T12:58:19.065Z,13.61
2019-04-28T13:00:55.309Z,13.52
2019-04-28T13:03:25.374Z,13.35
2019-04-28T13:06:02.604Z,13.24
2019-04-28T13:08:25.583Z,12.89
2019-04-28T13:10:56.656Z,13.12
2019-04-28T13:13:25.065Z,13.14
2019-04-28T13:15:53.478Z,12.91
2019-04-28T13:18:22.964Z,12.64
2019-04-28T13:20:51.443Z,12.50
2019-04-28T13:23:19.882Z,12.56
2019-04-28T13:25:48.249Z,12.73
2019-04-28T13:28:16.678Z,12.92
2019-04-28T13:30:45.084Z,12.75
2019-04-28T13:33:14.599Z,12.82
2019-04-28T13:35:43.049Z,12.68
2019-04-28T13:38:11.413Z,12.60
2019-04-28T13:40:41.906Z,12.47
2019-04-28T13:43:12.625Z,11.32
2019-04-28T13:45:41.025Z,12.37
2019-04-28T13:48:09.439Z,12.40
2019-04-28T13:50:43.619Z,12.57
2019-04-28T13:53:11.968Z,12.47
2019-04-28T13:55:43.319Z,12.72
2019-04-28T13:58:17.864Z,12.62
2019-04-28T14:01:04.002Z,12.81
2019-04-28T14:03:44.415Z,12.68
2019-04-28T14:06:27.195Z,12.96
2019-04-28T14:08:48.298Z,12.84
2019-04-28T14:11:19.634Z,13.14
2019-04-28T14:13:49.097Z,12.81
2019-04-28T14:16:20.231Z,13.08
2019-04-28T14:18:51.385Z,12.93
2019-04-28T14:21:20.539Z,13.05
2019-04-28T14:23:51.317Z,13.39
2019-04-28T14:26:19.675Z,13.43
2019-04-28T14:28:48.079Z,13.39
2019-04-28T14:31:16.528Z,13.46
2019-04-28T14:33:45.978Z,13.34
2019-04-28T14:36:16.476Z,13.44
2019-04-28T14:38:44.599Z,13.37
2019-04-28T14:41:13.075Z,13.63
2019-04-28T14:43:41.803Z,13.60
2019-04-28T14:46:11.066Z,13.81
2019-04-28T14:48:39.431Z,13.64
2019-04-28T14:51:07.892Z,13.14
2019-04-28T14:53:36.296Z,13.29
2019-04-28T14:56:07.325Z,13.14
2019-04-28T14:58:35.146Z,13.15
2019-04-28T15:01:27.450Z,13.07
2019-04-28T15:04:00.169Z,13.08
2019-04-28T15:06:33.254Z,12.81
2019-04-28T15:09:07.311Z,12.91
2019-04-28T15:11:38.402Z,13.04
2019-04-28T15:14:06.855Z,13.27
2019-04-28T15:16:35.271Z,13.21
2019-04-28T15:19:03.907Z,13.02
2019-04-28T15:21:37.492Z,12.74
2019-04-28T15:24:08.314Z,12.88
2019-04-28T15:26:36.781Z,12.84
2019-04-28T15:29:05.267Z,12.58
2019-04-28T15:31:33.688Z,12.46
2019-04-28T15:34:06.041Z,12.53
2019-04-28T15:36:36.942Z,12.54
2019-04-28T15:39:11.763Z,12.88
2019-04-28T15:41:40.200Z,12.99
2019-04-28T15:44:08.748Z,12.83
2019-04-28T15:46:38.100Z,12.63
2019-04-28T15:49:06.541Z,12.33
2019-04-28T15:51:34.940Z,12.16
2019-04-28T15:54:03.346Z,12.11
2019-04-28T15:56:37.521Z,12.10
2019-04-28T15:59:07.734Z,12.10
2019-04-28T16:01:38.816Z,11.93
2019-04-28T16:04:08.828Z,12.16
2019-04-28T16:06:37.725Z,12.12
2019-04-28T16:09:09.513Z,12.23
2019-04-28T16:11:39.259Z,12.29
2019-04-28T16:14:14.955Z,12.38
2019-04-28T16:16:43.354Z,12.44
2019-04-28T16:19:11.819Z,12.50
2019-04-28T16:21:40.305Z,12.47
2019-04-28T16:24:12.590Z,12.52
2019-04-28T16:26:43.122Z,12.51
2019-04-28T16:29:11.533Z,12.41
2019-04-28T16:31:39.927Z,12.23
2019-04-28T16:34:10.482Z,12.32
2019-04-28T16:36:38.903Z,12.32
2019-04-28T16:39:08.055Z,12.33
2019-04-28T16:41:40.384Z,12.24
2019-04-28T16:44:13.151Z,12.32
2019-04-28T16:46:42.511Z,12.17
2019-04-28T16:49:10.911Z,12.21
2019-04-28T16:51:39.337Z,12.17
2019-04-28T16:54:07.741Z,12.06
2019-04-28T16:56:43.789Z,11.92
2019-04-28T16:59:30.311Z,11.86
2019-04-28T17:02:03.627Z,11.79
2019-04-28T17:04:37.685Z,11.70
2019-04-28T17:07:04.905Z,11.56
2019-04-28T17:09:33.330Z,11.47
2019-04-28T17:12:01.734Z,11.38
2019-04-28T17:14:30.130Z,11.46
2019-04-28T17:16:59.102Z,11.38
2019-04-28T17:19:27.665Z,11.38
2019-04-28T17:21:56.102Z,11.27
2019-04-28T17:24:24.531Z,11.24
2019-04-28T17:26:52.930Z,11.20
2019-04-28T17:29:21.331Z,11.19
2019-04-28T17:31:49.760Z,11.16
2019-04-28T17:34:21.645Z,11.15
2019-04-28T17:36:50.155Z,11.10
2019-04-28T17:39:28.542Z,11.05
2019-04-28T17:41:54.635Z,11.01
2019-04-28T17:44:23.180Z,10.82
2019-04-28T17:46:51.574Z,10.82
2019-04-28T17:49:21.617Z,10.92
2019-04-28T17:51:54.014Z,10.89
2019-04-28T17:54:22.405Z,10.85
2019-04-28T17:56:50.833Z,10.81
2019-04-28T17:59:19.276Z,10.85
2019-04-28T18:01:50.261Z,10.84
2019-04-28T18:04:35.511Z,10.84
2019-04-28T18:07:15.492Z,10.92
2019-04-28T18:09:48.334Z,10.89
2019-04-28T18:12:16.754Z,10.93
2019-04-28T18:14:46.930Z,10.77
2019-04-28T18:17:28.937Z,10.85
2019-04-28T18:20:01.704Z,10.85
2019-04-28T18:22:30.138Z,10.82
2019-04-28T18:24:58.528Z,10.79
2019-04-28T18:27:26.943Z,10.66
2019-04-28T18:29:56.366Z,10.65
2019-04-28T18:32:26.455Z,10.65
2019-04-28T18:35:11.842Z,10.56
2019-04-28T18:37:41.942Z,10.57
2019-04-28T18:40:30.866Z,10.40
2019-04-28T18:43:21.837Z,10.31
2019-04-28T18:45:50.250Z,10.23
2019-04-28T18:48:18.684Z,10.25
2019-04-28T18:50:47.091Z,10.23
2019-04-28T18:53:15.517Z,10.21
2019-04-28T18:55:43.956Z,10.04
2019-04-28T18:58:12.356Z,9.92
2019-04-28T19:00:42.749Z,9.96
2019-04-28T19:03:11.168Z,9.95
2019-04-28T19:05:45.878Z,9.86
2019-04-28T19:08:18.568Z,9.62
2019-04-28T19:10:51.411Z,9.57
2019-04-28T19:13:21.471Z,9.52
2019-04-28T19:16:12.675Z,9.44
2019-04-28T19:18:44.291Z,9.36
2019-04-28T19:21:17.407Z,9.45
2019-04-28T19:23:45.845Z,9.27
2019-04-28T19:26:14.262Z,9.23
2019-04-28T19:28:42.664Z,9.07
2019-04-28T19:31:11.061Z,9.08
2019-04-28T19:33:40.484Z,9.08
2019-04-28T19:36:10.345Z,9.13
2019-04-28T19:38:38.735Z,8.74
2019-04-28T19:41:07.166Z,8.90
2019-04-28T19:43:39.201Z,8.90
2019-04-28T19:46:09.304Z,8.91
2019-04-28T19:48:38.741Z,8.79
2019-04-28T19:51:07.179Z,8.83
2019-04-28T19:53:39.448Z,8.90
2019-04-28T19:56:18.286Z,8.85
2019-04-28T19:58:52.125Z,8.95
2019-04-28T20:01:25.599Z,8.97
2019-04-28T20:03:54.629Z,8.91
2019-04-28T20:06:23.028Z,8.85
2019-04-28T20:08:51.456Z,8.89
2019-04-28T20:11:21.982Z,8.91
2019-04-28T20:13:50.419Z,8.92
2019-04-28T20:16:18.827Z,8.90
2019-04-28T20:18:49.005Z,8.79
2019-04-28T20:21:19.723Z,8.77
2019-04-28T20:23:48.116Z,8.69
2019-04-28T20:26:20.367Z,8.70
2019-04-28T20:28:48.827Z,8.66
2019-04-28T20:31:17.258Z,8.53
2019-04-28T20:33:46.764Z,8.47
2019-04-28T20:36:25.822Z,8.47
2019-04-28T20:38:55.865Z,8.60
2019-04-28T20:41:30.266Z,8.62
2019-04-28T20:43:59.228Z,8.57
2019-04-28T20:46:27.687Z,8.60
2019-04-28T20:48:56.112Z,8.59
2019-04-28T20:51:26.566Z,8.52
2019-04-28T20:53:54.968Z,8.65
2019-04-28T20:56:26.132Z,8.66
2019-04-28T20:58:54.624Z,8.53
2019-04-28T21:01:25.760Z,8.41
2019-04-28T21:03:54.189Z,8.46
2019-04-28T21:06:26.373Z,8.49
2019-04-28T21:08:58.865Z,8.43
2019-04-28T21:11:26.540Z,8.39
2019-04-28T21:13:57.441Z,8.34
2019-04-28T21:16:25.934Z,8.30
2019-04-28T21:18:58.092Z,8.34
2019-04-28T21:21:28.849Z,8.30
2019-04-28T21:23:57.272Z,8.20
2019-04-28T21:26:25.667Z,8.16
2019-04-28T21:28:54.062Z,8.15
2019-04-28T21:31:22.490Z,8.11
2019-04-28T21:33:50.901Z,8.05
2019-04-28T21:36:19.305Z,8.16
2019-04-28T21:38:49.359Z,8.16
2019-04-28T21:41:17.754Z,8.03
2019-04-28T21:43:47.820Z,7.99
2019-04-28T21:46:23.734Z,7.87
2019-04-28T21:48:53.798Z,7.91
2019-04-28T21:51:24.312Z,8.00
2019-04-28T21:53:52.724Z,7.97
2019-04-28T21:56:26.054Z,7.96
2019-04-28T21:58:57.488Z,8.05
2019-04-28T22:01:26.127Z,7.89
2019-04-28T22:03:57.125Z,7.91
2019-04-28T22:06:25.517Z,7.86
2019-04-28T22:08:56.494Z,7.80
2019-04-28T22:11:24.898Z,7.78
2019-04-28T22:13:54.448Z,7.84
2019-04-28T22:16:23.956Z,7.84
2019-04-28T22:18:52.358Z,7.81
2019-04-28T22:21:21.874Z,7.80
2019-04-28T22:23:52.008Z,7.80
2019-04-28T22:26:43.407Z,7.90
2019-04-28T22:29:17.291Z,7.92
2019-04-28T22:31:46.666Z,7.81
2019-04-28T22:34:19.577Z,7.78
2019-04-28T22:36:49.435Z,7.80
2019-04-28T22:39:17.849Z,7.84
2019-04-28T22:41:46.273Z,7.87
2019-04-28T22:44:14.763Z,7.87
2019-04-28T22:46:43.198Z,7.83
2019-04-28T22:49:11.751Z,7.82
2019-04-28T22:51:40.158Z,7.80
2019-04-28T22:54:10.212Z,7.76
2019-04-28T22:56:43.238Z,7.82
2019-04-28T22:59:16.108Z,7.92
2019-04-28T23:01:51.289Z,7.83
2019-04-28T23:04:38.468Z,7.89
2019-04-28T23:07:09.867Z,7.78
2019-04-28T23:09:44.844Z,7.89
2019-04-28T23:12:13.120Z,7.91
2019-04-28T23:14:44.985Z,7.85
2019-04-28T23:17:15.083Z,7.82
2019-04-28T23:19:45.161Z,7.89
2019-04-28T23:22:25.826Z,7.96
2019-04-28T23:24:56.793Z,7.93
2019-04-28T23:27:26.245Z,7.80
2019-04-28T23:29:58.733Z,7.86
2019-04-28T23:32:26.430Z,7.83
2019-04-28T23:34:54.784Z,7.92
2019-04-28T23:37:29.741Z,7.85
2019-04-28T23:40:02.470Z,7.75
2019-04-28T23:42:35.060Z,7.80
2019-04-28T23:45:02.711Z,7.82
2019-04-28T23:47:31.088Z,7.82
2019-04-28T23:49:59.506Z,7.86
2019-04-28T23:52:48.747Z,7.92
2019-04-28T23:55:19.901Z,7.90
2019-04-28T23:57:48.332Z,7.75
